createdAt,value
2023-03-11T00:00:39.685Z,68.43
2023-03-11T00:03:09.215Z,69.22
2023-03-11T00:05:39.541Z,69.75
2023-03-11T00:08:09.239Z,70.39
2023-03-11T00:10:40.402Z,71.33
2023-03-11T00:13:10.427Z,70.48
2023-03-11T00:15:39.411Z,69.62
2023-03-11T00:18:07.206Z,69.06
2023-03-11T00:20:38.581Z,69.21
2023-03-11T00:23:08.241Z,68.96
2023-03-11T00:25:37.901Z,68.95
2023-03-11T00:28:07.452Z,68.53
2023-03-11T00:30:34.873Z,67.90
2023-03-11T00:33:02.200Z,67.70
2023-03-11T00:35:33.545Z,67.50
2023-03-11T00:38:05.029Z,68.15
2023-03-11T00:40:34.385Z,67.67
2023-03-11T00:43:01.699Z,67.38
2023-03-11T00:45:29.412Z,67.60
2023-03-11T00:47:56.877Z,67.42
2023-03-11T00:50:28.517Z,67.77
2023-03-11T00:52:56.703Z,67.68
2023-03-11T00:55:30.775Z,67.54
2023-03-11T00:58:02.000Z,67.76
2023-03-11T01:00:30.762Z,67.96
2023-03-11T01:03:00.046Z,68.39
2023-03-11T01:05:31.336Z,68.03
2023-03-11T01:07:59.122Z,68.21
2023-03-11T01:10:27.841Z,68.67
2023-03-11T01:12:55.239Z,68.84
2023-03-11T01:15:29.318Z,69.30
2023-03-11T01:17:56.489Z,69.34
2023-03-11T01:20:23.959Z,69.42
2023-03-11T01:22:51.206Z,69.41
2023-03-11T01:25:21.304Z,69.64
2023-03-11T01:27:48.503Z,69.45
2023-03-11T01:30:22.429Z,69.96
2023-03-11T01:32:51.034Z,70.26
2023-03-11T01:35:20.684Z,70.33
2023-03-11T01:37:48.167Z,70.42
2023-03-11T01:40:23.947Z,70.42
2023-03-11T01:42:50.940Z,70.76
2023-03-11T01:45:42.018Z,70.81
2023-03-11T01:48:10.660Z,71.26
2023-03-11T01:50:44.167Z,71.05
2023-03-11T01:53:13.926Z,71.18
2023-03-11T01:55:41.609Z,71.51
2023-03-11T01:58:12.738Z,71.54
2023-03-11T02:00:40.027Z,71.11
2023-03-11T02:03:16.240Z,71.45
2023-03-11T02:05:43.631Z,71.65
2023-03-11T02:08:11.096Z,71.55
2023-03-11T02:10:41.903Z,71.56
2023-03-11T02:13:10.841Z,71.68
2023-03-11T02:15:39.968Z,72.11
2023-03-11T02:18:08.302Z,72.80
2023-03-11T02:21:01.010Z,72.36
2023-03-11T02:23:39.471Z,72.29
2023-03-11T02:26:17.632Z,72.67
2023-03-11T02:28:46.515Z,72.83
2023-03-11T02:31:14.466Z,73.28
2023-03-11T02:33:43.340Z,73.15
2023-03-11T02:36:36.106Z,73.04
2023-03-11T02:39:04.680Z,73.25
2023-03-11T02:41:34.811Z,73.26
2023-03-11T02:44:03.056Z,73.52
2023-03-11T02:46:30.211Z,73.48
2023-03-11T02:48:58.063Z,73.34
2023-03-11T02:51:25.108Z,73.70
2023-03-11T02:53:58.165Z,73.67
2023-03-11T02:56:25.643Z,73.68
2023-03-11T02:58:52.713Z,74.11
2023-03-11T03:01:19.822Z,74.21
2023-03-11T03:03:47.073Z,74.18
2023-03-11T03:06:14.175Z,74.53
2023-03-11T03:08:41.740Z,74.15
2023-03-11T03:11:08.860Z,74.37
2023-03-11T03:13:36.420Z,74.45
2023-03-11T03:16:03.906Z,74.44
2023-03-11T03:18:31.195Z,74.24
2023-03-11T03:20:58.201Z,74.31
2023-03-11T03:23:25.286Z,74.29
2023-03-11T03:25:52.463Z,74.26
2023-03-11T03:28:19.693Z,74.41
2023-03-11T03:30:47.110Z,74.54
2023-03-11T03:33:14.121Z,75.00
2023-03-11T03:35:44.478Z,74.86
2023-03-11T03:38:12.083Z,74.99
2023-03-11T03:40:40.015Z,74.83
2023-03-11T03:43:07.174Z,75.30
2023-03-11T03:45:34.202Z,74.84
2023-03-11T03:48:01.228Z,74.79
2023-03-11T03:50:28.353Z,75.10
2023-03-11T03:52:55.395Z,74.91
2023-03-11T03:55:22.528Z,75.09
2023-03-11T03:57:49.610Z,75.30
2023-03-11T04:00:17.359Z,75.10
2023-03-11T04:02:44.516Z,75.24
2023-03-11T04:05:11.716Z,75.34
2023-03-11T04:07:38.801Z,75.68
2023-03-11T04:10:06.956Z,75.54
2023-03-11T04:12:34.118Z,75.83
2023-03-11T04:15:01.217Z,76.02
2023-03-11T04:17:28.239Z,76.14
2023-03-11T04:19:55.349Z,75.86
2023-03-11T04:22:22.483Z,76.10
2023-03-11T04:24:49.567Z,75.97
2023-03-11T04:27:16.645Z,75.80
2023-03-11T04:29:43.707Z,75.98
2023-03-11T04:32:10.730Z,75.94
2023-03-11T04:34:37.953Z,76.00
2023-03-11T04:37:05.033Z,75.61
2023-03-11T04:39:32.118Z,75.81
2023-03-11T04:41:59.240Z,76.17
2023-03-11T04:44:26.418Z,76.26
2023-03-11T04:46:53.716Z,76.31
2023-03-11T04:49:20.888Z,76.32
2023-03-11T04:51:47.904Z,76.62
2023-03-11T04:54:15.165Z,76.08
2023-03-11T04:56:42.228Z,75.86
2023-03-11T04:59:09.355Z,75.89
2023-03-11T05:01:36.424Z,76.33
2023-03-11T05:04:03.746Z,75.78
2023-03-11T05:06:30.815Z,76.17
2023-03-11T05:08:59.081Z,76.24
2023-03-11T05:11:26.187Z,76.26
2023-03-11T05:13:53.246Z,76.60
2023-03-11T05:16:20.428Z,76.26
2023-03-11T05:18:47.570Z,76.68
2023-03-11T05:21:14.833Z,76.92
2023-03-11T05:23:41.925Z,76.99
2023-03-11T05:26:08.965Z,77.44
2023-03-11T05:28:36.053Z,77.30
2023-03-11T05:31:03.159Z,77.42
2023-03-11T05:33:35.367Z,77.67
2023-03-11T05:36:10.291Z,77.67
2023-03-11T05:38:38.297Z,77.88
2023-03-11T05:41:06.441Z,78.24
2023-03-11T05:43:33.491Z,78.15
2023-03-11T05:46:00.612Z,77.94
2023-03-11T05:48:27.681Z,78.05
2023-03-11T05:50:54.654Z,78.03
2023-03-11T05:53:21.645Z,78.07
2023-03-11T05:56:00.765Z,77.66
2023-03-11T05:58:32.482Z,77.95
2023-03-11T06:01:00.362Z,78.40
2023-03-11T06:03:27.755Z,78.16
2023-03-11T06:05:55.795Z,78.67
2023-03-11T06:08:22.874Z,79.09
2023-03-11T06:10:49.914Z,79.34
2023-03-11T06:13:17.153Z,79.07
2023-03-11T06:15:44.921Z,79.17
2023-03-11T06:18:12.187Z,79.07
2023-03-11T06:20:39.111Z,78.89
2023-03-11T06:23:06.106Z,79.01
2023-03-11T06:25:33.210Z,79.00
2023-03-11T06:28:00.249Z,78.99
2023-03-11T06:30:45.128Z,78.88
2023-03-11T06:33:14.597Z,79.24
2023-03-11T06:35:41.853Z,78.81
2023-03-11T06:38:09.203Z,78.85
2023-03-11T06:40:38.448Z,79.13
2023-03-11T06:43:05.592Z,78.78
2023-03-11T06:45:32.802Z,78.61
2023-03-11T06:47:59.900Z,78.23
2023-03-11T06:50:28.005Z,78.15
2023-03-11T06:52:55.110Z,77.66
2023-03-11T06:55:22.224Z,77.62
2023-03-11T06:57:49.322Z,77.08
2023-03-11T07:00:17.490Z,77.05
2023-03-11T07:02:44.841Z,77.04
2023-03-11T07:05:13.521Z,76.77
2023-03-11T07:07:40.805Z,76.93
2023-03-11T07:10:09.390Z,76.63
2023-03-11T07:12:36.421Z,76.39
2023-03-11T07:15:06.059Z,76.41
2023-03-11T07:17:33.153Z,76.08
2023-03-11T07:20:00.395Z,75.81
2023-03-11T07:22:27.499Z,75.96
2023-03-11T07:24:54.538Z,75.84
2023-03-11T07:27:23.142Z,75.73
2023-03-11T07:29:50.522Z,75.38
2023-03-11T07:32:18.012Z,75.20
2023-03-11T07:34:45.360Z,75.07
2023-03-11T07:37:12.493Z,74.73
2023-03-11T07:39:40.086Z,74.72
2023-03-11T07:42:07.545Z,74.38
2023-03-11T07:44:34.872Z,74.32
2023-03-11T07:47:06.455Z,74.66
2023-03-11T07:49:33.835Z,74.17
2023-03-11T07:52:00.966Z,73.38
2023-03-11T07:54:28.028Z,73.11
2023-03-11T07:56:55.095Z,72.91
2023-03-11T07:59:22.481Z,72.78
2023-03-11T08:01:50.736Z,72.52
2023-03-11T08:04:18.012Z,72.50
2023-03-11T08:06:47.659Z,72.25
2023-03-11T08:09:15.320Z,71.73
2023-03-11T08:11:42.851Z,72.24
2023-03-11T08:14:10.006Z,72.00
2023-03-11T08:16:39.924Z,71.23
2023-03-11T08:19:06.960Z,70.99
2023-03-11T08:21:34.046Z,69.99
2023-03-11T08:24:03.663Z,69.42
2023-03-11T08:26:32.564Z,69.66
2023-03-11T08:28:59.720Z,67.46
2023-03-11T08:31:31.547Z,67.12
2023-03-11T08:34:02.922Z,67.64
2023-03-11T08:36:31.201Z,67.30
2023-03-11T08:38:58.785Z,67.80
2023-03-11T08:41:26.593Z,67.98
2023-03-11T08:43:53.685Z,66.70
2023-03-11T08:46:39.042Z,65.28
2023-03-11T08:49:07.677Z,64.22
2023-03-11T08:51:35.950Z,64.01
2023-03-11T08:54:04.321Z,63.70
2023-03-11T08:56:31.648Z,64.12
2023-03-11T08:58:58.817Z,61.69
2023-03-11T09:01:26.004Z,59.84
2023-03-11T09:03:56.966Z,60.86
2023-03-11T09:06:24.901Z,61.40
2023-03-11T09:08:52.272Z,61.23
2023-03-11T09:11:19.778Z,59.13
2023-03-11T09:13:47.146Z,59.42
2023-03-11T09:16:18.535Z,57.68
2023-03-11T09:18:46.740Z,59.09
2023-03-11T09:21:15.371Z,58.33
2023-03-11T09:23:44.512Z,58.28
2023-03-11T09:26:12.548Z,56.79
2023-03-11T09:28:41.890Z,57.75
2023-03-11T09:31:09.877Z,58.52
2023-03-11T09:33:40.484Z,56.55
2023-03-11T09:36:17.170Z,55.49
2023-03-11T09:38:46.103Z,54.36
2023-03-11T09:41:57.074Z,53.49
2023-03-11T09:44:42.649Z,54.40
2023-03-11T09:48:01.193Z,53.01
2023-03-11T09:50:38.886Z,53.13
2023-03-11T09:53:30.429Z,54.05
2023-03-11T09:56:00.321Z,52.59
2023-03-11T09:58:53.581Z,52.83
2023-03-11T10:01:35.128Z,53.84
2023-03-11T10:04:27.225Z,52.87
2023-03-11T10:06:54.845Z,52.89
2023-03-11T10:09:41.446Z,50.17
2023-03-11T10:12:30.840Z,51.80
2023-03-11T10:15:31.527Z,52.07
2023-03-11T10:18:40.866Z,52.52
2023-03-11T10:21:53.385Z,52.34
2023-03-11T10:24:55.529Z,51.61
2023-03-11T10:27:37.609Z,52.71
2023-03-11T10:30:24.859Z,53.27
2023-03-11T10:33:20.562Z,52.71
2023-03-11T10:35:54.288Z,52.13
2023-03-11T10:38:27.065Z,52.23
2023-03-11T10:41:03.544Z,52.66
2023-03-11T10:43:45.666Z,53.97
2023-03-11T10:46:27.113Z,53.62
2023-03-11T10:48:54.487Z,52.59
2023-03-11T10:51:34.687Z,51.52
2023-03-11T10:54:04.034Z,51.51
2023-03-11T10:56:39.496Z,51.62
2023-03-11T10:59:50.628Z,53.02
2023-03-11T11:02:39.167Z,52.83
2023-03-11T11:05:18.227Z,52.54
2023-03-11T11:07:47.587Z,51.96
2023-03-11T11:10:16.854Z,51.32
2023-03-11T11:13:14.097Z,51.07
2023-03-11T11:15:52.194Z,52.06
2023-03-11T11:18:24.998Z,51.27
2023-03-11T11:21:05.814Z,51.79
2023-03-11T11:23:41.043Z,52.65
2023-03-11T11:26:23.020Z,51.26
2023-03-11T11:29:09.202Z,52.49
2023-03-11T11:31:45.369Z,52.54
2023-03-11T11:34:35.327Z,52.52
2023-03-11T11:37:07.683Z,50.83
2023-03-11T11:39:57.400Z,52.76
2023-03-11T11:42:28.916Z,52.39
2023-03-11T11:45:29.648Z,51.83
2023-03-11T11:48:09.124Z,51.32
2023-03-11T11:50:57.532Z,50.68
2023-03-11T11:53:57.269Z,50.93
2023-03-11T11:56:31.868Z,49.94
2023-03-11T11:59:01.363Z,49.07
2023-03-11T12:02:13.663Z,48.88
2023-03-11T12:04:54.037Z,49.61
2023-03-11T12:07:39.890Z,50.03
2023-03-11T12:10:37.739Z,49.46
2023-03-11T12:13:14.971Z,49.99
2023-03-11T12:15:52.985Z,50.78
2023-03-11T12:18:28.784Z,50.72
2023-03-11T12:20:57.107Z,48.70
2023-03-11T12:23:55.109Z,49.58
2023-03-11T12:26:29.126Z,50.66
2023-03-11T12:29:08.969Z,50.65
2023-03-11T12:31:42.049Z,50.37
2023-03-11T12:34:20.157Z,48.99
2023-03-11T12:36:58.958Z,49.21
2023-03-11T12:39:35.814Z,47.59
2023-03-11T12:42:19.793Z,49.66
2023-03-11T12:44:53.033Z,49.09
2023-03-11T12:47:26.325Z,49.44
2023-03-11T12:50:37.722Z,47.98
2023-03-11T12:53:06.941Z,49.23
2023-03-11T12:55:36.475Z,49.26
2023-03-11T12:58:56.194Z,49.16
2023-03-11T13:02:02.850Z,48.43
2023-03-11T13:04:56.431Z,47.94
2023-03-11T13:07:26.432Z,48.02
2023-03-11T13:10:18.915Z,48.07
2023-03-11T13:12:49.566Z,48.18
2023-03-11T13:15:20.453Z,50.72
2023-03-11T13:18:18.865Z,49.81
2023-03-11T13:20:50.237Z,48.66
2023-03-11T13:23:32.105Z,47.93
2023-03-11T13:26:17.071Z,46.83
2023-03-11T13:29:19.209Z,47.39
2023-03-11T13:32:23.174Z,48.87
2023-03-11T13:35:22.298Z,50.21
2023-03-11T13:38:45.917Z,48.87
2023-03-11T13:41:32.087Z,48.38
2023-03-11T13:44:26.970Z,50.14
2023-03-11T13:47:04.580Z,49.63
2023-03-11T13:49:42.996Z,50.85
2023-03-11T13:52:16.958Z,51.76
2023-03-11T13:54:58.375Z,50.69
2023-03-11T13:57:31.962Z,50.95
2023-03-11T14:00:29.868Z,50.28
2023-03-11T14:03:02.129Z,51.91
2023-03-11T14:05:36.188Z,51.36
2023-03-11T14:08:19.182Z,50.38
2023-03-11T14:11:17.491Z,51.20
2023-03-11T14:13:50.198Z,52.24
2023-03-11T14:16:44.137Z,52.24
2023-03-11T14:19:18.994Z,51.95
2023-03-11T14:21:49.219Z,52.59
2023-03-11T14:24:23.403Z,53.48
2023-03-11T14:26:55.906Z,53.51
2023-03-11T14:29:43.430Z,54.17
2023-03-11T14:32:37.598Z,52.77
2023-03-11T14:35:20.595Z,53.68
2023-03-11T14:37:47.753Z,53.92
2023-03-11T14:40:30.018Z,54.13
2023-03-11T14:43:02.488Z,54.08
2023-03-11T14:45:33.631Z,55.29
2023-03-11T14:48:18.185Z,55.07
2023-03-11T14:50:49.566Z,54.19
2023-03-11T14:53:41.530Z,53.51
2023-03-11T14:56:19.181Z,54.43
2023-03-11T14:59:23.469Z,53.92
2023-03-11T15:01:51.557Z,54.74
2023-03-11T15:04:33.905Z,55.65
2023-03-11T15:07:02.217Z,56.03
2023-03-11T15:09:30.457Z,56.18
2023-03-11T15:12:00.854Z,55.44
2023-03-11T15:14:31.979Z,56.06
2023-03-11T15:17:34.722Z,56.30
2023-03-11T15:20:07.552Z,56.28
2023-03-11T15:22:41.149Z,56.03
2023-03-11T15:25:19.520Z,56.20
2023-03-11T15:27:47.179Z,55.67
2023-03-11T15:30:28.125Z,55.16
2023-03-11T15:32:56.270Z,54.79
2023-03-11T15:35:31.067Z,55.15
2023-03-11T15:38:21.657Z,55.65
2023-03-11T15:41:01.096Z,56.19
2023-03-11T15:43:46.201Z,55.96
2023-03-11T15:46:13.268Z,56.39
2023-03-11T15:48:40.288Z,55.68
2023-03-11T15:51:17.357Z,55.93
2023-03-11T15:53:44.325Z,55.48
2023-03-11T15:56:21.394Z,56.35
2023-03-11T15:58:48.554Z,56.32
2023-03-11T16:01:15.527Z,55.89
2023-03-11T16:03:42.659Z,55.62
2023-03-11T16:06:09.696Z,56.07
2023-03-11T16:08:36.779Z,54.53
2023-03-11T16:11:03.834Z,54.86
2023-03-11T16:13:30.870Z,55.89
2023-03-11T16:15:57.994Z,55.08
2023-03-11T16:18:25.103Z,55.41
2023-03-11T16:20:54.397Z,55.23
2023-03-11T16:23:44.810Z,56.23
2023-03-11T16:26:17.558Z,55.77
2023-03-11T16:28:44.540Z,55.85
2023-03-11T16:31:11.666Z,56.57
2023-03-11T16:33:38.786Z,56.18
2023-03-11T16:36:06.536Z,57.24
2023-03-11T16:38:47.594Z,57.23
2023-03-11T16:41:15.915Z,57.71
2023-03-11T16:43:43.580Z,58.01
2023-03-11T16:46:10.742Z,58.23
2023-03-11T16:48:37.749Z,59.35
2023-03-11T16:51:05.074Z,59.42
2023-03-11T16:53:32.113Z,59.71
2023-03-11T16:55:59.869Z,59.79
2023-03-11T16:58:27.067Z,60.85
2023-03-11T17:00:54.122Z,61.93
2023-03-11T17:03:21.746Z,62.01
2023-03-11T17:05:49.247Z,62.64
2023-03-11T17:08:18.292Z,63.35
2023-03-11T17:10:46.679Z,63.53
2023-03-11T17:13:16.511Z,64.25
2023-03-11T17:15:45.867Z,65.03
2023-03-11T17:18:13.744Z,65.22
2023-03-11T17:20:43.682Z,65.93
2023-03-11T17:23:10.766Z,66.89
2023-03-11T17:25:41.703Z,67.16
2023-03-11T17:28:09.432Z,67.41
2023-03-11T17:30:37.767Z,67.27
2023-03-11T17:33:05.259Z,67.48
2023-03-11T17:35:32.326Z,68.01
2023-03-11T17:37:59.338Z,67.63
2023-03-11T17:40:27.165Z,67.65
2023-03-11T17:42:54.304Z,68.12
2023-03-11T17:45:21.231Z,67.96
2023-03-11T17:47:48.420Z,67.71
2023-03-11T17:50:15.682Z,67.57
2023-03-11T17:52:43.532Z,67.61
2023-03-11T17:55:17.395Z,67.67
2023-03-11T17:57:45.807Z,67.90
2023-03-11T18:00:15.197Z,67.52
2023-03-11T18:02:42.671Z,67.44
2023-03-11T18:05:10.342Z,68.31
2023-03-11T18:07:40.972Z,68.65
2023-03-11T18:10:10.103Z,68.95
2023-03-11T18:12:38.249Z,69.68
2023-03-11T18:15:08.379Z,70.18
2023-03-11T18:17:35.787Z,70.30
2023-03-11T18:20:03.602Z,70.15
2023-03-11T18:22:30.681Z,70.60
2023-03-11T18:24:57.988Z,71.42
2023-03-11T18:27:25.220Z,72.45
2023-03-11T18:29:52.175Z,72.32
2023-03-11T18:32:20.862Z,71.70
2023-03-11T18:34:51.265Z,70.68
2023-03-11T18:37:18.829Z,70.79
2023-03-11T18:39:46.178Z,72.04
2023-03-11T18:42:14.432Z,71.98
2023-03-11T18:44:42.515Z,72.80
2023-03-11T18:47:09.631Z,74.80
2023-03-11T18:49:37.964Z,76.11
2023-03-11T18:52:05.589Z,76.04
2023-03-11T18:54:32.933Z,74.87
2023-03-11T18:56:59.975Z,75.30
2023-03-11T18:59:27.912Z,74.67
2023-03-11T19:01:55.384Z,74.92
2023-03-11T19:04:22.884Z,75.17
2023-03-11T19:06:50.329Z,75.71
2023-03-11T19:09:21.255Z,76.56
2023-03-11T19:11:48.322Z,76.69
2023-03-11T19:14:15.833Z,75.44
2023-03-11T19:16:43.353Z,75.78
2023-03-11T19:19:11.903Z,76.33
2023-03-11T19:21:39.443Z,76.75
2023-03-11T19:24:06.856Z,76.91
2023-03-11T19:26:44.809Z,76.46
2023-03-11T19:29:14.366Z,78.07
2023-03-11T19:31:43.760Z,78.13
2023-03-11T19:34:11.066Z,78.41
2023-03-11T19:36:39.190Z,78.89
2023-03-11T19:39:06.338Z,79.88
2023-03-11T19:41:34.433Z,79.07
2023-03-11T19:44:04.366Z,79.84
2023-03-11T19:46:34.814Z,79.67
2023-03-11T19:49:03.085Z,78.89
2023-03-11T19:51:42.465Z,78.73
2023-03-11T19:54:16.932Z,79.87
2023-03-11T19:56:44.140Z,79.97
2023-03-11T19:59:11.602Z,81.59
2023-03-11T20:01:38.676Z,82.42
2023-03-11T20:04:06.366Z,82.96
2023-03-11T20:06:33.787Z,83.25
2023-03-11T20:09:01.032Z,83.21
2023-03-11T20:11:28.203Z,83.61
2023-03-11T20:13:56.539Z,83.14
2023-03-11T20:16:23.865Z,83.09
2023-03-11T20:18:51.630Z,82.56
2023-03-11T20:21:20.444Z,82.30
2023-03-11T20:23:49.138Z,82.64
2023-03-11T20:26:19.401Z,83.13
2023-03-11T20:28:47.156Z,82.94
2023-03-11T20:31:23.914Z,82.67
2023-03-11T20:33:52.080Z,82.14
2023-03-11T20:36:25.836Z,82.03
2023-03-11T20:38:55.111Z,82.31
2023-03-11T20:41:25.253Z,82.74
2023-03-11T20:43:57.076Z,82.58
2023-03-11T20:46:24.520Z,82.52
2023-03-11T20:48:51.969Z,82.46
2023-03-11T20:51:20.928Z,82.87
2023-03-11T20:53:49.191Z,82.99
2023-03-11T20:56:21.076Z,82.96
2023-03-11T20:58:51.149Z,83.05
2023-03-11T21:01:23.189Z,83.26
2023-03-11T21:03:53.598Z,83.01
2023-03-11T21:06:25.920Z,83.11
2023-03-11T21:08:58.414Z,83.04
2023-03-11T21:11:27.105Z,83.05
2023-03-11T21:13:55.567Z,82.89
2023-03-11T21:16:23.517Z,83.06
2023-03-11T21:18:50.759Z,83.29
2023-03-11T21:21:19.526Z,83.17
2023-03-11T21:23:47.966Z,83.19
2023-03-11T21:26:17.303Z,83.53
2023-03-11T21:28:47.172Z,83.31
2023-03-11T21:31:23.201Z,83.13
2023-03-11T21:33:54.858Z,83.08
2023-03-11T21:36:22.893Z,83.14
2023-03-11T21:38:51.195Z,83.32
2023-03-11T21:41:26.285Z,83.20
2023-03-11T21:43:56.165Z,83.50
2023-03-11T21:46:31.181Z,83.81
2023-03-11T21:49:00.698Z,84.21
2023-03-11T21:51:28.589Z,84.20
2023-03-11T21:53:56.915Z,84.35
2023-03-11T21:56:24.175Z,84.48
2023-03-11T21:58:54.955Z,84.28
2023-03-11T22:01:22.424Z,84.36
2023-03-11T22:03:49.599Z,85.46
2023-03-11T22:06:16.724Z,85.67
2023-03-11T22:08:46.118Z,85.98
2023-03-11T22:11:19.518Z,86.16
2023-03-11T22:13:49.229Z,86.02
2023-03-11T22:16:17.421Z,85.64
2023-03-11T22:18:47.773Z,85.58
2023-03-11T22:21:16.381Z,84.98
2023-03-11T22:23:46.191Z,85.12
2023-03-11T22:26:14.751Z,84.95
2023-03-11T22:28:41.747Z,85.05
2023-03-11T22:31:15.053Z,84.79
2023-03-11T22:33:42.667Z,85.16
2023-03-11T22:36:10.109Z,84.51
2023-03-11T22:38:39.409Z,84.87
2023-03-11T22:41:08.552Z,84.60
2023-03-11T22:43:37.323Z,84.71
2023-03-11T22:46:06.082Z,85.22
2023-03-11T22:48:35.545Z,85.21
2023-03-11T22:51:03.480Z,85.01
2023-03-11T22:53:30.651Z,85.09
2023-03-11T22:55:57.853Z,85.29
2023-03-11T22:58:25.003Z,85.72
2023-03-11T23:00:52.022Z,85.54
2023-03-11T23:03:19.116Z,85.60
2023-03-11T23:05:46.943Z,85.94
2023-03-11T23:08:16.649Z,86.09
2023-03-11T23:10:46.274Z,86.56
2023-03-11T23:13:14.090Z,86.83
2023-03-11T23:15:43.955Z,86.85
2023-03-11T23:18:12.716Z,86.78
2023-03-11T23:20:41.717Z,86.51
2023-03-11T23:23:10.743Z,87.24
2023-03-11T23:25:39.690Z,86.85
2023-03-11T23:28:07.656Z,86.52
2023-03-11T23:30:34.822Z,86.19
2023-03-11T23:33:03.174Z,86.56
2023-03-11T23:35:31.735Z,86.73
2023-03-11T23:37:59.446Z,86.77
2023-03-11T23:40:26.837Z,87.11
2023-03-11T23:42:54.094Z,87.09
2023-03-11T23:45:21.131Z,87.11
2023-03-11T23:47:48.265Z,87.59
2023-03-11T23:50:15.907Z,87.61
2023-03-11T23:52:43.436Z,87.66
2023-03-11T23:55:11.358Z,87.84
2023-03-11T23:57:39.446Z,87.84
